createdAt,value
2023-02-06T14:47:01.295Z,33.65
2023-02-06T14:49:48.280Z,32.22
2023-02-06T14:52:34.489Z,40.17
2023-02-06T14:55:32.711Z,30.63
2023-02-06T14:58:28.117Z,25.15
2023-02-06T15:01:27.772Z,29.35
2023-02-06T15:04:19.268Z,27.48
2023-02-06T15:07:05.026Z,26.08
2023-02-06T15:09:59.383Z,26.40
2023-02-06T15:12:54.027Z,24.80
2023-02-06T15:15:53.335Z,24.98
2023-02-06T15:18:38.499Z,24.08
2023-02-06T15:21:23.791Z,24.25
2023-02-06T15:24:23.681Z,26.80
2023-02-06T15:27:28.316Z,23.83
2023-02-06T15:30:28.364Z,25.73
2023-02-06T15:33:21.370Z,24.45
2023-02-06T15:36:07.954Z,31.25
2023-02-06T15:38:53.590Z,27.40
2023-02-06T15:41:42.417Z,28.67
2023-02-06T15:44:35.050Z,27.15
2023-02-06T15:47:21.362Z,24.65
2023-02-06T15:50:11.919Z,28.17
2023-02-06T15:52:57.347Z,30.98
2023-02-06T15:55:52.002Z,27.27
2023-02-06T15:58:37.841Z,29.58
2023-02-06T16:01:24.693Z,32.35
2023-02-06T16:04:24.161Z,24.67
2023-02-06T16:07:28.703Z,25.95
2023-02-06T16:10:24.937Z,26.98
2023-02-06T16:13:16.336Z,25.13
2023-02-06T16:16:04.042Z,29.02
2023-02-06T16:18:53.735Z,26.00
2023-02-06T16:21:42.090Z,27.88
2023-02-06T16:24:27.907Z,20.75
2023-02-06T16:27:20.356Z,26.80
2023-02-06T16:30:05.993Z,25.25
2023-02-06T16:32:54.677Z,26.35
2023-02-06T16:35:40.429Z,26.35
2023-02-06T16:38:25.835Z,24.55
2023-02-06T16:41:38.766Z,30.08
2023-02-06T16:44:36.127Z,25.75
2023-02-06T16:47:29.678Z,26.85
2023-02-06T16:50:21.840Z,28.50
2023-02-06T16:53:19.098Z,30.17
2023-02-06T16:56:14.217Z,26.05
2023-02-06T16:58:59.548Z,33.70
2023-02-06T17:01:44.757Z,27.08
2023-02-06T17:04:30.409Z,31.58
2023-02-06T17:07:19.404Z,25.13
2023-02-06T17:10:05.965Z,20.73
2023-02-06T17:12:52.199Z,28.85
2023-02-06T17:15:39.225Z,27.45
2023-02-06T17:18:24.399Z,32.33
2023-02-06T17:21:13.846Z,26.67
2023-02-06T17:24:02.491Z,36.42
2023-02-06T17:26:51.014Z,29.08
2023-02-06T17:29:36.565Z,31.40
2023-02-06T17:32:22.864Z,31.65
2023-02-06T17:35:09.395Z,38.10
2023-02-06T17:37:54.875Z,26.45
2023-02-06T17:40:41.326Z,28.55
2023-02-06T17:43:26.891Z,30.48
2023-02-06T17:46:13.184Z,31.60
2023-02-06T17:48:58.828Z,28.33
2023-02-06T17:51:45.139Z,29.13
2023-02-06T17:54:30.271Z,31.67
2023-02-06T17:57:15.412Z,30.65
2023-02-06T18:00:00.983Z,29.83
2023-02-06T18:02:46.168Z,28.60
2023-02-06T18:05:31.942Z,29.20
2023-02-06T18:08:18.271Z,30.67
2023-02-06T18:11:15.170Z,34.08
2023-02-06T18:14:00.574Z,27.55
2023-02-06T18:16:47.051Z,34.55
2023-02-06T18:19:40.584Z,36.38
2023-02-06T18:22:26.396Z,32.78
2023-02-06T18:25:14.706Z,29.98
2023-02-06T18:28:00.251Z,32.63
2023-02-06T18:30:46.834Z,32.15
2023-02-06T18:33:35.110Z,34.60
2023-02-06T18:36:21.397Z,37.33
2023-02-06T18:39:07.465Z,32.72
2023-02-06T18:42:11.645Z,35.35
2023-02-06T18:44:56.733Z,34.75
2023-02-06T18:47:42.373Z,30.38
2023-02-06T18:50:28.020Z,37.03
2023-02-06T18:53:13.395Z,31.48
2023-02-06T18:56:00.591Z,32.95
2023-02-06T18:58:46.391Z,38.05
2023-02-06T19:01:32.687Z,31.48
2023-02-06T19:04:19.090Z,33.28
2023-02-06T19:07:04.220Z,31.92
2023-02-06T19:09:49.597Z,39.28
2023-02-06T19:12:35.004Z,33.22
2023-02-06T19:15:20.415Z,31.45
2023-02-06T19:18:06.046Z,32.38
2023-02-06T19:20:51.378Z,31.38
2023-02-06T19:23:38.171Z,35.90
2023-02-06T19:26:23.982Z,49.83
2023-02-06T19:29:11.157Z,37.97
2023-02-06T19:31:56.490Z,37.20
2023-02-06T19:34:42.133Z,36.35
2023-02-06T19:37:27.669Z,46.97
2023-02-06T19:40:13.143Z,33.78
2023-02-06T19:42:58.656Z,33.42
2023-02-06T19:45:44.031Z,34.05
2023-02-06T19:48:29.431Z,37.60
2023-02-06T19:51:20.745Z,36.55
2023-02-06T19:54:06.457Z,35.10
2023-02-06T19:56:51.997Z,35.88
2023-02-06T19:59:37.058Z,34.50
2023-02-06T20:02:22.758Z,35.00
2023-02-06T20:05:08.500Z,40.42
2023-02-06T20:07:53.940Z,34.85
2023-02-06T20:10:39.297Z,35.78
2023-02-06T20:13:24.601Z,40.58
2023-02-06T20:16:17.285Z,39.42
2023-02-06T20:19:15.392Z,36.97
2023-02-06T20:22:01.262Z,46.57
2023-02-06T20:24:46.654Z,40.20
2023-02-06T20:27:31.769Z,38.03
2023-02-06T20:30:18.728Z,38.25
2023-02-06T20:33:04.434Z,36.67
2023-02-06T20:35:49.571Z,35.33
2023-02-06T20:38:35.683Z,40.33
2023-02-06T20:41:23.582Z,36.15
2023-02-06T20:44:10.834Z,35.58
2023-02-06T20:46:56.167Z,33.22
2023-02-06T20:49:41.966Z,40.80
2023-02-06T20:52:27.483Z,33.65
2023-02-06T20:55:12.651Z,33.75
2023-02-06T20:57:58.121Z,38.13
2023-02-06T21:00:43.500Z,42.30
2023-02-06T21:03:28.501Z,40.95
2023-02-06T21:06:14.697Z,36.03
2023-02-06T21:09:01.084Z,35.85
2023-02-06T21:11:49.173Z,36.55
2023-02-06T21:14:34.509Z,38.35
2023-02-06T21:17:19.965Z,42.42
2023-02-06T21:20:06.493Z,41.35
2023-02-06T21:22:52.804Z,38.03
2023-02-06T21:25:38.894Z,37.00
2023-02-06T21:28:24.377Z,41.55
2023-02-06T21:31:14.389Z,43.17
2023-02-06T21:34:21.455Z,42.13
2023-02-06T21:37:06.654Z,37.75
2023-02-06T21:39:52.177Z,45.67
2023-02-06T21:42:37.440Z,46.92
2023-02-06T21:45:22.794Z,37.85
2023-02-06T21:48:08.935Z,44.63
2023-02-06T21:50:54.596Z,45.47
2023-02-06T21:53:40.923Z,44.47
2023-02-06T21:56:27.740Z,38.85
2023-02-06T21:59:13.340Z,37.10
2023-02-06T22:01:58.672Z,41.58
2023-02-06T22:04:43.964Z,41.78
2023-02-06T22:07:28.990Z,40.78
2023-02-06T22:10:14.562Z,45.70
2023-02-06T22:12:59.819Z,36.95
2023-02-06T22:15:49.761Z,45.35
2023-02-06T22:18:35.549Z,44.20
2023-02-06T22:21:22.997Z,40.63
2023-02-06T22:24:10.493Z,43.25
2023-02-06T22:26:56.180Z,41.65
2023-02-06T22:29:41.522Z,41.33
2023-02-06T22:32:27.186Z,49.08
2023-02-06T22:35:13.973Z,54.80
2023-02-06T22:37:59.809Z,46.35
2023-02-06T22:40:45.219Z,42.33
2023-02-06T22:43:31.959Z,43.20
2023-02-06T22:46:20.961Z,43.67
2023-02-06T22:51:52.703Z,46.28
2023-02-06T22:54:37.929Z,41.03
2023-02-06T22:57:23.764Z,44.67
2023-02-06T23:00:11.567Z,43.75
2023-02-06T23:02:56.648Z,48.10
2023-02-06T23:05:41.979Z,44.97
2023-02-06T23:08:26.886Z,45.63
2023-02-06T23:11:13.272Z,45.75
2023-02-06T23:14:02.349Z,43.00
2023-02-06T23:16:47.864Z,46.97
2023-02-06T23:19:33.444Z,47.97
2023-02-06T23:22:18.757Z,44.60
2023-02-06T23:25:04.286Z,39.65
2023-02-06T23:27:49.515Z,43.17
2023-02-06T23:30:34.961Z,38.88
2023-02-06T23:33:21.326Z,43.28
2023-02-06T23:36:10.757Z,46.00
2023-02-06T23:38:56.405Z,39.55
2023-02-06T23:41:41.986Z,37.30
2023-02-06T23:44:27.709Z,35.13
2023-02-06T23:47:12.794Z,45.22
2023-02-06T23:49:58.294Z,41.08
2023-02-06T23:52:43.999Z,37.67
2023-02-06T23:55:30.567Z,38.53
2023-02-06T23:58:16.047Z,39.58
